Time;durP1;ratioP1;P1;durP2;ratioP2;P2;SDS_P1;SDS_P2;PMS_P1;PMS_P2;Temp;Humidity;BMP_temperature;BMP_pressure;BME280_temperature;BME280_humidity;BME280_pressure;Samples;Min_cycle;Max_cycle;Signal;HPM_P1;HPM_P2
2023/06/04 00:00:38;;;;;;;7.85;4.63;;;;;;;;;;5056604;28;20057;-57
2023/06/04 00:03:05;;;;;;;7.25;4.70;;;;;;;;;;5085401;28;20052;-55
2023/06/04 00:05:33;;;;;;;7.22;5.35;;;;;;;;;;5074735;28;20511;-54
2023/06/04 00:07:59;;;;;;;9.25;5.20;;;;;;;;;;5073760;28;20505;-56
2023/06/04 00:10:26;;;;;;;6.95;4.65;;;;;;;;;;5073342;28;20060;-55
2023/06/04 00:12:54;;;;;;;8.57;5.35;;;;;;;;;;5073153;28;20489;-57
2023/06/04 00:15:21;;;;;;;9.30;4.82;;;;;;;;;;5089122;28;20130;-57
2023/06/04 00:17:48;;;;;;;7.45;4.18;;;;;;;;;;5078754;28;20053;-55
2023/06/04 00:20:15;;;;;;;6.85;4.40;;;;;;;;;;5072612;28;20489;-57
2023/06/04 00:22:42;;;;;;;5.75;3.85;;;;;;;;;;5072854;28;20048;-55
2023/06/04 00:25:09;;;;;;;7.28;4.38;;;;;;;;;;5074191;28;20056;-55
2023/06/04 00:27:36;;;;;;;7.25;4.20;;;;;;;;;;5077656;28;20109;-51
2023/06/04 00:30:05;;;;;;;8.32;4.47;;;;;;;;;;5092958;28;20051;-52
2023/06/04 00:32:32;;;;;;;6.93;4.05;;;;;;;;;;5093080;28;20051;-53
2023/06/04 00:34:59;;;;;;;7.88;4.10;;;;;;;;;;5092841;28;20089;-56
2023/06/04 00:37:27;;;;;;;6.50;4.07;;;;;;;;;;5093243;28;20393;-54
2023/06/04 00:39:53;;;;;;;8.73;4.75;;;;;;;;;;5093297;28;20044;-55
2023/06/04 00:42:20;;;;;;;7.72;4.28;;;;;;;;;;5093367;28;20180;-56
2023/06/04 00:44:47;;;;;;;5.38;3.50;;;;;;;;;;5089931;28;20114;-54
2023/06/04 00:47:16;;;;;;;5.07;3.60;;;;;;;;;;5081956;28;20044;-59
2023/06/04 00:49:43;;;;;;;6.63;4.00;;;;;;;;;;5092618;28;20116;-54
2023/06/04 00:52:11;;;;;;;6.70;3.97;;;;;;;;;;5092813;28;20385;-58
2023/06/04 00:54:38;;;;;;;6.22;4.00;;;;;;;;;;5093080;28;20507;-57
2023/06/04 00:57:06;;;;;;;7.38;3.75;;;;;;;;;;5092769;28;20040;-55
2023/06/04 00:59:35;;;;;;;7.75;3.83;;;;;;;;;;5076373;28;20045;-55
2023/06/04 01:02:05;;;;;;;5.72;3.60;;;;;;;;;;5072089;28;20053;-56
2023/06/04 01:04:37;;;;;;;7.68;4.15;;;;;;;;;;5071908;28;20094;-55
2023/06/04 01:07:05;;;;;;;5.80;3.42;;;;;;;;;;5072296;28;20053;-54
2023/06/04 01:09:32;;;;;;;7.75;4.00;;;;;;;;;;5072049;28;20147;-53
2023/06/04 01:12:01;;;;;;;6.20;3.78;;;;;;;;;;5080541;28;20055;-56
2023/06/04 01:14:29;;;;;;;6.60;3.90;;;;;;;;;;5092854;28;20056;-53
2023/06/04 01:17:02;;;;;;;5.85;3.75;;;;;;;;;;5085375;28;20136;-55
2023/06/04 01:20:03;;;;;;;5.55;3.63;;;;;;;;;;5071790;28;20059;-57
2023/06/04 01:22:36;;;;;;;6.97;3.70;;;;;;;;;;5064770;28;20139;-55
2023/06/04 01:25:09;;;;;;;6.13;3.85;;;;;;;;;;5071782;28;20445;-52
2023/06/04 01:27:36;;;;;;;6.05;3.72;;;;;;;;;;5072584;28;20071;-59
2023/06/04 01:30:07;;;;;;;8.57;3.80;;;;;;;;;;5093085;22;20052;-77
2023/06/04 01:32:34;;;;;;;7.55;3.92;;;;;;;;;;5069604;28;20131;-77
2023/06/04 01:35:02;;;;;;;7.20;3.58;;;;;;;;;;5072353;28;20048;-76
2023/06/04 01:37:29;;;;;;;6.28;3.53;;;;;;;;;;5072044;28;20491;-78
2023/06/04 01:39:55;;;;;;;7.72;4.00;;;;;;;;;;5071967;28;20416;-77
2023/06/04 01:42:22;;;;;;;7.47;3.60;;;;;;;;;;5087709;28;20134;-77
2023/06/04 01:44:49;;;;;;;6.00;3.22;;;;;;;;;;5091929;28;20040;-77
2023/06/04 01:47:15;;;;;;;6.97;3.45;;;;;;;;;;5082442;28;20427;-77
2023/06/04 01:49:42;;;;;;;7.55;3.67;;;;;;;;;;5071968;28;20058;-77
2023/06/04 01:52:11;;;;;;;6.38;3.88;;;;;;;;;;5072059;28;20447;-77
2023/06/04 01:54:38;;;;;;;6.45;3.72;;;;;;;;;;5087369;28;20052;-77
2023/06/04 01:57:06;;;;;;;6.03;3.47;;;;;;;;;;5079964;28;20063;-77
2023/06/04 01:59:33;;;;;;;7.22;3.75;;;;;;;;;;5072591;28;20041;-77
2023/06/04 02:02:01;;;;;;;5.55;3.17;;;;;;;;;;5073015;28;20053;-76
2023/06/04 02:04:28;;;;;;;6.07;3.53;;;;;;;;;;5072092;28;20116;-77
2023/06/04 02:06:55;;;;;;;6.93;4.03;;;;;;;;;;5070947;28;20542;-77
2023/06/04 02:09:23;;;;;;;7.93;3.95;;;;;;;;;;5071287;28;20135;-77
2023/06/04 02:11:50;;;;;;;8.85;4.07;;;;;;;;;;5071493;28;20049;-77
2023/06/04 02:14:16;;;;;;;7.68;4.57;;;;;;;;;;5071894;28;20047;-76
2023/06/04 02:16:43;;;;;;;9.82;4.75;;;;;;;;;;5075846;28;20131;-76
2023/06/04 02:19:12;;;;;;;7.30;4.30;;;;;;;;;;5075616;28;20045;-76
2023/06/04 02:21:39;;;;;;;6.20;3.75;;;;;;;;;;5075669;28;20045;-77
2023/06/04 02:24:06;;;;;;;7.93;4.25;;;;;;;;;;5075912;28;20045;-76
2023/06/04 02:26:34;;;;;;;5.97;4.10;;;;;;;;;;5089410;28;20127;-77
2023/06/04 02:29:01;;;;;;;6.32;3.92;;;;;;;;;;5095670;28;20050;-78
2023/06/04 02:31:27;;;;;;;7.45;4.38;;;;;;;;;;5095941;28;20054;-77
2023/06/04 02:33:54;;;;;;;9.95;5.07;;;;;;;;;;5094795;28;20127;-78
2023/06/04 02:36:20;;;;;;;6.88;4.15;;;;;;;;;;5075914;28;20106;-77
2023/06/04 02:38:47;;;;;;;6.65;4.50;;;;;;;;;;5075139;28;20511;-77
2023/06/04 02:41:14;;;;;;;8.05;4.75;;;;;;;;;;5078337;28;20406;-77
2023/06/04 02:43:42;;;;;;;8.07;4.60;;;;;;;;;;5096095;28;20058;-77
2023/06/04 02:46:08;;;;;;;7.78;5.32;;;;;;;;;;5095986;28;20135;-78
2023/06/04 02:48:35;;;;;;;7.28;4.90;;;;;;;;;;5096110;28;20127;-78
2023/06/04 02:51:02;;;;;;;7.35;4.93;;;;;;;;;;5096098;28;20146;-79
2023/06/04 02:53:28;;;;;;;8.65;5.63;;;;;;;;;;5095934;28;20066;-78
2023/06/04 02:55:55;;;;;;;7.40;4.95;;;;;;;;;;5096183;28;20056;-77
2023/06/04 02:58:24;;;;;;;9.55;5.85;;;;;;;;;;5099532;28;20040;-78
2023/06/04 03:00:53;;;;;;;7.53;4.95;;;;;;;;;;5097132;28;20043;-77
2023/06/04 03:03:20;;;;;;;7.85;5.00;;;;;;;;;;5099563;28;20058;-77
2023/06/04 03:05:46;;;;;;;8.70;5.28;;;;;;;;;;5096187;28;20680;-76
2023/06/04 03:08:13;;;;;;;8.05;5.43;;;;;;;;;;5095105;28;20557;-76
2023/06/04 03:10:40;;;;;;;8.63;5.90;;;;;;;;;;5095030;28;20135;-76
2023/06/04 03:13:06;;;;;;;8.00;4.85;;;;;;;;;;5093919;28;20044;-77
2023/06/04 03:15:33;;;;;;;8.15;5.38;;;;;;;;;;5094984;28;20731;-76
2023/06/04 03:18:01;;;;;;;9.82;5.03;;;;;;;;;;5095356;28;20453;-77
2023/06/04 03:20:28;;;;;;;8.05;5.03;;;;;;;;;;5095389;28;20050;-76
2023/06/04 03:22:54;;;;;;;8.15;4.93;;;;;;;;;;5094901;28;20574;-77
2023/06/04 03:25:21;;;;;;;10.95;5.65;;;;;;;;;;5095594;28;20040;-78
2023/06/04 03:27:48;;;;;;;7.35;5.40;;;;;;;;;;5095594;28;20593;-75
2023/06/04 03:30:14;;;;;;;8.93;5.07;;;;;;;;;;5096442;28;20076;-77
2023/06/04 03:32:41;;;;;;;11.23;5.53;;;;;;;;;;5095998;28;20051;-76
2023/06/04 03:35:10;;;;;;;8.07;4.85;;;;;;;;;;5098366;28;20067;-77
2023/06/04 03:37:36;;;;;;;8.52;5.18;;;;;;;;;;5100270;28;20088;-77
2023/06/04 03:40:06;;;;;;;7.78;5.05;;;;;;;;;;5099418;28;20138;-76
2023/06/04 03:42:32;;;;;;;7.78;5.20;;;;;;;;;;5099377;28;20324;-77
2023/06/04 03:44:59;;;;;;;9.32;5.22;;;;;;;;;;5096424;28;20128;-76
2023/06/04 03:47:26;;;;;;;7.50;4.60;;;;;;;;;;5095494;28;20410;-77
2023/06/04 03:49:52;;;;;;;8.02;5.25;;;;;;;;;;5095597;28;20134;-76
2023/06/04 03:52:20;;;;;;;7.95;4.75;;;;;;;;;;5098393;28;20131;-77
2023/06/04 03:54:47;;;;;;;7.13;4.60;;;;;;;;;;5096514;28;20132;-77
2023/06/04 03:57:14;;;;;;;7.32;3.95;;;;;;;;;;5096033;28;20048;-77
2023/06/04 03:59:40;;;;;;;7.95;4.68;;;;;;;;;;5095508;28;20052;-77
2023/06/04 04:02:07;;;;;;;7.10;4.47;;;;;;;;;;5095177;28;20048;-77
2023/06/04 04:04:34;;;;;;;8.50;4.97;;;;;;;;;;5094280;28;20139;-77
2023/06/04 04:07:00;;;;;;;6.15;3.88;;;;;;;;;;5094968;28;20130;-78
2023/06/04 04:09:28;;;;;;;9.60;4.50;;;;;;;;;;5094692;28;20047;-78
2023/06/04 04:11:55;;;;;;;7.57;4.35;;;;;;;;;;5094693;28;20094;-77
2023/06/04 04:14:21;;;;;;;7.38;4.15;;;;;;;;;;5093981;28;20422;-77
2023/06/04 04:16:48;;;;;;;9.25;5.05;;;;;;;;;;5094727;28;20052;-78
2023/06/04 04:19:15;;;;;;;7.45;4.10;;;;;;;;;;5094136;28;20050;-77
2023/06/04 04:21:41;;;;;;;7.43;4.20;;;;;;;;;;5095559;28;20059;-77
2023/06/04 04:24:09;;;;;;;6.32;4.13;;;;;;;;;;5113575;28;20068;-77
2023/06/04 04:26:37;;;;;;;8.50;4.60;;;;;;;;;;5111547;28;20079;-78
2023/06/04 04:29:03;;;;;;;7.50;5.05;;;;;;;;;;5094874;28;20083;-77
2023/06/04 04:31:30;;;;;;;8.88;4.60;;;;;;;;;;5094378;28;20090;-77
2023/06/04 04:33:57;;;;;;;6.45;3.90;;;;;;;;;;5093605;28;20055;-76
2023/06/04 04:36:23;;;;;;;6.75;4.40;;;;;;;;;;5093882;28;20052;-77
2023/06/04 04:38:54;;;;;;;6.57;4.25;;;;;;;;;;5092467;28;20052;-77
2023/06/04 04:41:20;;;;;;;6.00;3.75;;;;;;;;;;5093381;28;20078;-77
2023/06/04 04:43:49;;;;;;;7.47;4.05;;;;;;;;;;5093486;28;20044;-78
2023/06/04 04:46:15;;;;;;;7.15;4.07;;;;;;;;;;5077248;28;20048;-77
2023/06/04 04:48:42;;;;;;;7.38;4.57;;;;;;;;;;5073633;28;20050;-77
2023/06/04 04:51:09;;;;;;;8.25;4.70;;;;;;;;;;5073026;28;20127;-77
2023/06/04 04:53:36;;;;;;;9.30;4.80;;;;;;;;;;5073493;28;20044;-76
2023/06/04 04:56:02;;;;;;;5.95;3.95;;;;;;;;;;5083559;28;20044;-79
2023/06/04 04:58:29;;;;;;;6.47;3.70;;;;;;;;;;5092952;28;20048;-77
2023/06/04 05:00:57;;;;;;;6.03;3.67;;;;;;;;;;5093174;28;20044;-77
2023/06/04 05:03:23;;;;;;;7.88;4.13;;;;;;;;;;5086361;28;20044;-78
2023/06/04 05:05:50;;;;;;;6.45;4.05;;;;;;;;;;5073220;28;20079;-77
2023/06/04 05:08:17;;;;;;;6.07;3.90;;;;;;;;;;5073503;28;20140;-76
2023/06/04 05:10:43;;;;;;;6.38;3.80;;;;;;;;;;5072525;28;20053;-77
2023/06/04 05:13:11;;;;;;;7.90;3.92;;;;;;;;;;5073011;28;20047;-76
2023/06/04 05:15:39;;;;;;;6.32;3.92;;;;;;;;;;5073795;28;20049;-77
2023/06/04 05:18:07;;;;;;;6.35;3.75;;;;;;;;;;5073269;28;20052;-77
2023/06/04 05:20:35;;;;;;;9.10;4.30;;;;;;;;;;5072798;28;20048;-78
2023/06/04 05:23:02;;;;;;;7.93;3.90;;;;;;;;;;5073652;28;20651;-76
2023/06/04 05:25:28;;;;;;;5.13;3.40;;;;;;;;;;5072844;28;20469;-78
2023/06/04 05:27:57;;;;;;;7.40;3.80;;;;;;;;;;5073229;28;20048;-77
2023/06/04 05:30:24;;;;;;;6.20;3.70;;;;;;;;;;5072542;28;20613;-77
2023/06/04 05:32:53;;;;;;;6.57;3.67;;;;;;;;;;5072409;28;20045;-78
2023/06/04 05:35:21;;;;;;;6.85;4.00;;;;;;;;;;5072969;28;20095;-79
2023/06/04 05:37:53;;;;;;;6.35;3.35;;;;;;;;;;5084431;28;20455;-76
2023/06/04 05:40:20;;;;;;;11.48;3.42;;;;;;;;;;5092129;28;20074;-77
2023/06/04 05:42:47;;;;;;;5.18;3.58;;;;;;;;;;5079267;28;20106;-77
2023/06/04 05:45:14;;;;;;;6.10;3.58;;;;;;;;;;5074328;28;20051;-77
2023/06/04 05:47:41;;;;;;;7.03;3.42;;;;;;;;;;5080493;28;20055;-77
2023/06/04 05:50:08;;;;;;;6.50;3.50;;;;;;;;;;5091731;28;20044;-77
2023/06/04 05:52:36;;;;;;;5.07;3.10;;;;;;;;;;5092714;28;20044;-77
2023/06/04 05:55:03;;;;;;;12.57;3.30;;;;;;;;;;5092492;28;20457;-76
2023/06/04 05:57:30;;;;;;;10.35;3.65;;;;;;;;;;5093153;28;20126;-78
2023/06/04 05:59:56;;;;;;;7.15;3.50;;;;;;;;;;5091765;28;20383;-78
2023/06/04 06:02:23;;;;;;;7.82;3.92;;;;;;;;;;5093236;28;20048;-78
2023/06/04 06:04:50;;;;;;;6.00;4.03;;;;;;;;;;5088215;28;20040;-78
2023/06/04 06:07:16;;;;;;;6.20;4.00;;;;;;;;;;5092896;28;20048;-77
2023/06/04 06:09:45;;;;;;;7.00;3.90;;;;;;;;;;5075327;28;20051;-76
2023/06/04 06:12:11;;;;;;;7.20;3.70;;;;;;;;;;5072172;28;20094;-76
2023/06/04 06:14:38;;;;;;;5.53;3.33;;;;;;;;;;5072427;28;20051;-76
2023/06/04 06:17:05;;;;;;;7.25;4.38;;;;;;;;;;5072983;28;20131;-78
2023/06/04 06:19:31;;;;;;;7.82;4.00;;;;;;;;;;5073074;28;20041;-77
2023/06/04 06:21:59;;;;;;;8.27;4.15;;;;;;;;;;5072133;28;20392;-76
2023/06/04 06:24:26;;;;;;;6.60;3.67;;;;;;;;;;5072451;28;20041;-76
2023/06/04 06:26:54;;;;;;;7.97;3.97;;;;;;;;;;5071865;28;20454;-76
2023/06/04 06:29:20;;;;;;;6.72;3.95;;;;;;;;;;5071546;28;20051;-76
2023/06/04 06:31:47;;;;;;;8.65;4.43;;;;;;;;;;5071501;28;20056;-76
2023/06/04 06:34:14;;;;;;;6.03;3.45;;;;;;;;;;5086248;28;20075;-76
2023/06/04 06:36:41;;;;;;;8.63;4.30;;;;;;;;;;5091863;28;20059;-77
2023/06/04 06:39:08;;;;;;;8.27;3.97;;;;;;;;;;5091596;28;20048;-76
2023/06/04 06:41:35;;;;;;;5.57;3.72;;;;;;;;;;5092947;28;20365;-77
2023/06/04 06:44:03;;;;;;;7.88;4.30;;;;;;;;;;5098543;28;20134;-77
2023/06/04 06:46:29;;;;;;;5.82;3.55;;;;;;;;;;5098176;28;20100;-76
2023/06/04 06:48:56;;;;;;;5.75;3.33;;;;;;;;;;5092445;28;20131;-77
2023/06/04 06:51:23;;;;;;;6.53;3.42;;;;;;;;;;5092303;28;20055;-76
2023/06/04 06:53:50;;;;;;;8.27;3.97;;;;;;;;;;5091993;28;20050;-75
2023/06/04 06:56:17;;;;;;;7.97;4.00;;;;;;;;;;5092134;28;20067;-76
2023/06/04 06:58:44;;;;;;;4.90;3.20;;;;;;;;;;5091751;28;20056;-75
2023/06/04 07:01:13;;;;;;;10.75;3.83;;;;;;;;;;5081593;28;20048;-78
2023/06/04 07:03:39;;;;;;;5.05;3.58;;;;;;;;;;5075686;28;20131;-79
2023/06/04 07:06:06;;;;;;;7.28;3.45;;;;;;;;;;5075650;28;20051;-77
2023/06/04 07:08:33;;;;;;;5.60;3.40;;;;;;;;;;5076454;28;20402;-77
2023/06/04 07:11:00;;;;;;;6.18;3.15;;;;;;;;;;5082280;28;20079;-77
2023/06/04 07:13:26;;;;;;;5.85;3.03;;;;;;;;;;5096802;28;20131;-76
2023/06/04 07:15:53;;;;;;;6.07;3.63;;;;;;;;;;5095674;28;20050;-77
2023/06/04 07:18:21;;;;;;;6.90;3.50;;;;;;;;;;5094990;28;20044;-77
2023/06/04 07:20:48;;;;;;;6.63;3.70;;;;;;;;;;5093492;28;20491;-76
2023/06/04 07:23:15;;;;;;;6.47;4.50;;;;;;;;;;5094925;28;20135;-78
2023/06/04 07:25:42;;;;;;;5.78;3.60;;;;;;;;;;5097270;28;20109;-76
2023/06/04 07:28:09;;;;;;;6.78;3.65;;;;;;;;;;5099698;28;20075;-76
2023/06/04 07:30:36;;;;;;;7.72;3.88;;;;;;;;;;5097460;28;20135;-77
2023/06/04 07:33:03;;;;;;;6.85;3.75;;;;;;;;;;5087102;28;20040;-78
2023/06/04 07:35:31;;;;;;;6.00;3.55;;;;;;;;;;5074655;28;20561;-76
2023/06/04 07:37:58;;;;;;;6.90;3.80;;;;;;;;;;5074389;28;20044;-80
2023/06/04 07:40:25;;;;;;;5.35;3.50;;;;;;;;;;5076516;28;20052;-77
2023/06/04 07:42:51;;;;;;;5.90;3.92;;;;;;;;;;5082087;28;20105;-78
2023/06/04 07:45:18;;;;;;;5.38;3.08;;;;;;;;;;5085130;28;20056;-77
2023/06/04 07:47:45;;;;;;;6.65;4.15;;;;;;;;;;5096126;28;20696;-78
2023/06/04 07:50:11;;;;;;;10.38;4.38;;;;;;;;;;5096132;28;20055;-76
2023/06/04 07:52:39;;;;;;;6.60;3.50;;;;;;;;;;5094916;28;20131;-76
2023/06/04 07:55:08;;;;;;;8.15;3.50;;;;;;;;;;5078259;28;20048;-77
2023/06/04 07:57:34;;;;;;;6.65;3.80;;;;;;;;;;5096834;28;20051;-78
2023/06/04 08:00:03;;;;;;;6.07;3.75;;;;;;;;;;5096896;28;20442;-78
2023/06/04 08:02:30;;;;;;;7.55;3.60;;;;;;;;;;5108153;28;20037;-77
2023/06/04 08:04:57;;;;;;;7.07;3.83;;;;;;;;;;5090994;28;20134;-77
2023/06/04 08:07:25;;;;;;;5.80;3.35;;;;;;;;;;5097453;28;20099;-79
2023/06/04 08:09:53;;;;;;;6.47;3.40;;;;;;;;;;5097390;28;20133;-79
2023/06/04 08:12:19;;;;;;;7.30;3.60;;;;;;;;;;5095761;28;20043;-77
2023/06/04 08:14:46;;;;;;;5.82;3.30;;;;;;;;;;5090177;28;20132;-77
2023/06/04 08:17:13;;;;;;;6.20;3.50;;;;;;;;;;5076505;28;20132;-78
2023/06/04 08:19:39;;;;;;;6.85;3.55;;;;;;;;;;5076239;28;20045;-77
2023/06/04 08:22:06;;;;;;;5.75;3.70;;;;;;;;;;5074541;28;20051;-78
2023/06/04 08:24:33;;;;;;;6.80;3.55;;;;;;;;;;5080959;28;20051;-78
2023/06/04 08:27:01;;;;;;;6.55;3.55;;;;;;;;;;5102010;28;20113;-78
2023/06/04 08:29:27;;;;;;;5.75;3.67;;;;;;;;;;5095764;28;20052;-79
2023/06/04 08:31:54;;;;;;;5.93;3.70;;;;;;;;;;5092077;28;20131;-77
2023/06/04 08:34:21;;;;;;;6.35;3.67;;;;;;;;;;5094437;28;20478;-77
2023/06/04 08:36:47;;;;;;;6.47;3.50;;;;;;;;;;5096086;28;20048;-77
2023/06/04 08:39:14;;;;;;;6.30;3.30;;;;;;;;;;5095125;28;20044;-78
2023/06/04 08:41:44;;;;;;;5.45;3.45;;;;;;;;;;5093214;28;20040;-78
2023/06/04 08:44:12;;;;;;;6.78;3.53;;;;;;;;;;5094793;28;20046;-77
2023/06/04 08:46:40;;;;;;;5.63;3.25;;;;;;;;;;5095114;28;20050;-78
2023/06/04 08:49:08;;;;;;;5.93;3.38;;;;;;;;;;5094616;28;20067;-77
2023/06/04 08:51:37;;;;;;;6.55;3.65;;;;;;;;;;5094332;28;20117;-77
2023/06/04 08:54:05;;;;;;;5.38;3.10;;;;;;;;;;5094077;28;20582;-77
2023/06/04 08:56:32;;;;;;;7.72;3.60;;;;;;;;;;5095579;28;20093;-78
2023/06/04 08:59:02;;;;;;;5.60;3.75;;;;;;;;;;5086609;28;20056;-77
2023/06/04 09:01:30;;;;;;;7.20;3.33;;;;;;;;;;5082757;28;20051;-78
2023/06/04 09:03:59;;;;;;;6.22;3.60;;;;;;;;;;5074686;28;20407;-78
2023/06/04 09:06:26;;;;;;;7.13;3.70;;;;;;;;;;5073490;28;20048;-77
2023/06/04 09:08:57;;;;;;;6.45;3.78;;;;;;;;;;5073003;28;20052;-77
2023/06/04 09:11:26;;;;;;;7.20;3.60;;;;;;;;;;5074176;28;20070;-77
2023/06/04 09:13:54;;;;;;;4.80;3.30;;;;;;;;;;5072785;28;20045;-78
2023/06/04 09:16:21;;;;;;;5.47;3.60;;;;;;;;;;5076667;28;20071;-77
2023/06/04 09:18:49;;;;;;;5.05;3.15;;;;;;;;;;5071751;28;20055;-77
2023/06/04 09:21:16;;;;;;;6.38;3.38;;;;;;;;;;5071661;28;20135;-77
2023/06/04 09:23:45;;;;;;;9.25;3.63;;;;;;;;;;5073225;28;20431;-77
2023/06/04 09:26:12;;;;;;;7.43;3.25;;;;;;;;;;5087837;28;20050;-77
2023/06/04 09:28:41;;;;;;;5.35;3.13;;;;;;;;;;5076769;28;20047;-77
2023/06/04 09:31:09;;;;;;;6.90;3.75;;;;;;;;;;5073790;28;20044;-78
2023/06/04 09:33:43;;;;;;;4.93;2.88;;;;;;;;;;5081916;28;20094;-77
2023/06/04 09:36:11;;;;;;;5.05;3.55;;;;;;;;;;5092645;28;20048;-76
2023/06/04 09:38:39;;;;;;;5.85;3.20;;;;;;;;;;5091966;28;20127;-77
2023/06/04 09:41:06;;;;;;;4.90;2.78;;;;;;;;;;5090135;28;20053;-78
2023/06/04 09:43:33;;;;;;;5.40;3.38;;;;;;;;;;5072307;28;20067;-77
2023/06/04 09:46:10;;;;;;;6.25;3.10;;;;;;;;;;5072488;28;20047;-77
2023/06/04 09:48:37;;;;;;;6.07;3.55;;;;;;;;;;5072218;28;20401;-77
2023/06/04 09:51:08;;;;;;;5.72;3.53;;;;;;;;;;5088626;28;20044;-77
2023/06/04 09:53:57;;;;;;;7.47;3.15;;;;;;;;;;5072167;28;20469;-76
2023/06/04 09:56:26;;;;;;;5.07;3.47;;;;;;;;;;5071993;28;20518;-76
2023/06/04 09:58:57;;;;;;;6.30;3.40;;;;;;;;;;5071513;28;20048;-77
2023/06/04 10:01:26;;;;;;;5.38;3.25;;;;;;;;;;5072466;28;20044;-76
2023/06/04 10:03:53;;;;;;;4.82;2.78;;;;;;;;;;5089728;28;20048;-78
2023/06/04 10:06:21;;;;;;;5.10;3.33;;;;;;;;;;5092123;28;20072;-76
2023/06/04 10:08:51;;;;;;;6.90;3.50;;;;;;;;;;5093161;28;20047;-78
2023/06/04 10:11:21;;;;;;;5.40;3.75;;;;;;;;;;5094161;28;20056;-78
2023/06/04 10:13:53;;;;;;;5.90;3.15;;;;;;;;;;5093757;28;20063;-77
2023/06/04 10:16:21;;;;;;;7.68;3.70;;;;;;;;;;5091458;28;20494;-77
2023/06/04 10:18:49;;;;;;;6.53;3.55;;;;;;;;;;5072412;28;20431;-77
2023/06/04 10:21:18;;;;;;;5.68;3.45;;;;;;;;;;5074161;28;20056;-77
2023/06/04 10:23:45;;;;;;;5.35;3.10;;;;;;;;;;5073354;28;20567;-78
2023/06/04 10:26:16;;;;;;;5.57;3.60;;;;;;;;;;5075157;28;20055;-77
2023/06/04 10:28:42;;;;;;;6.28;3.53;;;;;;;;;;5078113;28;20064;-77
2023/06/04 10:31:10;;;;;;;5.60;3.40;;;;;;;;;;5089180;28;20054;-76
2023/06/04 10:33:37;;;;;;;7.15;3.85;;;;;;;;;;5084200;28;20144;-77
2023/06/04 10:36:17;;;;;;;5.78;3.35;;;;;;;;;;5084054;28;20439;-77
2023/06/04 10:38:46;;;;;;;5.55;3.35;;;;;;;;;;5096908;28;20048;-78
2023/06/04 10:41:16;;;;;;;6.30;3.42;;;;;;;;;;5097315;28;20048;-77
2023/06/04 10:43:43;;;;;;;6.40;3.47;;;;;;;;;;5098859;28;20070;-77
2023/06/04 10:46:13;;;;;;;6.07;3.30;;;;;;;;;;5086770;28;20537;-78
2023/06/04 10:48:46;;;;;;;6.55;3.55;;;;;;;;;;5077810;28;20106;-77
2023/06/04 10:51:13;;;;;;;6.40;3.53;;;;;;;;;;5077041;28;20136;-78
2023/06/04 10:53:40;;;;;;;6.05;3.45;;;;;;;;;;5076785;28;20646;-77
2023/06/04 10:56:06;;;;;;;6.82;3.95;;;;;;;;;;5087814;28;20155;-76
2023/06/04 10:58:35;;;;;;;6.25;3.70;;;;;;;;;;5096528;28;20050;-78
2023/06/04 11:01:02;;;;;;;5.93;3.50;;;;;;;;;;5091406;28;20048;-77
2023/06/04 11:03:36;;;;;;;5.93;3.70;;;;;;;;;;5077445;28;20495;-77
2023/06/04 11:06:02;;;;;;;5.82;3.50;;;;;;;;;;5082979;28;20056;-76
2023/06/04 11:08:30;;;;;;;6.57;3.90;;;;;;;;;;5077644;28;20047;-77
2023/06/04 11:10:57;;;;;;;6.55;4.15;;;;;;;;;;5077133;28;20547;-76
2023/06/04 11:13:24;;;;;;;6.13;4.38;;;;;;;;;;5078827;28;20104;-78
2023/06/04 11:15:52;;;;;;;7.05;4.65;;;;;;;;;;5077836;28;20044;-77
2023/06/04 11:18:21;;;;;;;5.80;3.90;;;;;;;;;;5076179;28;20043;-76
2023/06/04 11:20:49;;;;;;;6.90;3.75;;;;;;;;;;5079198;28;20138;-77
2023/06/04 11:23:16;;;;;;;8.05;4.32;;;;;;;;;;5088200;28;20044;-77
2023/06/04 11:25:45;;;;;;;6.20;4.20;;;;;;;;;;5077098;28;20055;-76
2023/06/04 11:28:17;;;;;;;7.45;3.85;;;;;;;;;;5091987;28;20082;-77
2023/06/04 11:30:44;;;;;;;6.22;3.90;;;;;;;;;;5076185;28;20044;-77
2023/06/04 11:33:12;;;;;;;9.05;4.68;;;;;;;;;;5079758;28;20471;-77
2023/06/04 11:35:43;;;;;;;8.38;4.28;;;;;;;;;;5094855;28;20052;-77
2023/06/04 11:38:10;;;;;;;12.25;4.40;;;;;;;;;;5094535;28;20048;-75
2023/06/04 11:40:37;;;;;;;12.23;4.20;;;;;;;;;;5093878;28;20044;-74
2023/06/04 11:43:04;;;;;;;6.60;4.20;;;;;;;;;;5073988;28;20051;-76
2023/06/04 11:45:31;;;;;;;6.10;3.78;;;;;;;;;;5073704;28;20045;-78
2023/06/04 11:47:58;;;;;;;6.75;3.75;;;;;;;;;;5072604;28;20127;-77
2023/06/04 11:50:28;;;;;;;7.20;4.00;;;;;;;;;;5073950;28;20075;-77
2023/06/04 11:52:55;;;;;;;5.63;3.90;;;;;;;;;;5074411;28;20048;-77
2023/06/04 11:55:22;;;;;;;6.80;4.38;;;;;;;;;;5074376;28;20044;-78
2023/06/04 11:57:50;;;;;;;6.38;3.85;;;;;;;;;;5074113;28;20123;-78
2023/06/04 12:00:19;;;;;;;7.03;4.22;;;;;;;;;;5074916;28;20407;-77
2023/06/04 12:02:54;;;;;;;6.38;4.25;;;;;;;;;;5074436;28;20098;-80
2023/06/04 12:05:22;;;;;;;6.95;4.22;;;;;;;;;;5078074;28;20507;-79
2023/06/04 12:07:51;;;;;;;6.63;4.40;;;;;;;;;;5076692;28;20127;-78
2023/06/04 12:10:18;;;;;;;10.98;7.75;;;;;;;;;;5079090;28;20406;-81
2023/06/04 12:12:45;;;;;;;30.17;18.92;;;;;;;;;;5096307;28;20051;-79
2023/06/04 12:15:12;;;;;;;27.70;17.17;;;;;;;;;;5082798;28;20044;-78
2023/06/04 12:17:50;;;;;;;9.93;5.20;;;;;;;;;;5079461;28;20048;-79
2023/06/04 12:20:16;;;;;;;8.25;5.60;;;;;;;;;;5097017;28;20103;-78
2023/06/04 12:22:46;;;;;;;15.60;10.43;;;;;;;;;;5101317;28;20072;-78
2023/06/04 12:25:24;;;;;;;8.35;5.13;;;;;;;;;;5094953;28;20051;-77
2023/06/04 12:27:51;;;;;;;5.80;4.10;;;;;;;;;;5095356;28;20134;-78
2023/06/04 12:30:18;;;;;;;5.95;4.50;;;;;;;;;;5094390;28;20068;-77
2023/06/04 12:32:45;;;;;;;9.52;4.88;;;;;;;;;;5081418;28;20048;-77
2023/06/04 12:35:12;;;;;;;9.98;4.53;;;;;;;;;;5075388;28;20056;-77
2023/06/04 12:37:39;;;;;;;5.88;4.30;;;;;;;;;;5075100;28;20131;-77
2023/06/04 12:40:07;;;;;;;6.13;3.92;;;;;;;;;;5057193;28;20049;-79
2023/06/04 12:42:35;;;;;;;9.25;4.20;;;;;;;;;;5057691;28;20397;-79
2023/06/04 12:45:02;;;;;;;6.07;3.92;;;;;;;;;;5054782;28;20055;-78
2023/06/04 12:47:28;;;;;;;6.10;4.05;;;;;;;;;;5054840;28;20456;-78
2023/06/04 12:49:55;;;;;;;6.22;4.07;;;;;;;;;;5054217;28;20128;-76
2023/06/04 12:52:21;;;;;;;5.72;4.10;;;;;;;;;;5079618;28;20059;-78
2023/06/04 12:54:48;;;;;;;6.95;3.63;;;;;;;;;;5081132;28;20116;-79
2023/06/04 12:57:15;;;;;;;5.63;3.97;;;;;;;;;;5080257;28;20109;-80
2023/06/04 12:59:43;;;;;;;7.43;4.63;;;;;;;;;;5083128;28;20067;-79
2023/06/04 13:02:10;;;;;;;7.00;4.10;;;;;;;;;;5081067;28;20136;-77
2023/06/04 13:04:36;;;;;;;7.10;4.03;;;;;;;;;;5074292;28;20500;-78
2023/06/04 13:07:03;;;;;;;7.30;4.10;;;;;;;;;;5074049;28;20495;-78
2023/06/04 13:09:32;;;;;;;7.22;3.97;;;;;;;;;;5072459;28;20558;-77
2023/06/04 13:11:58;;;;;;;5.25;4.00;;;;;;;;;;5072537;28;20094;-77
2023/06/04 13:14:25;;;;;;;8.32;4.60;;;;;;;;;;5074373;28;20054;-77
2023/06/04 13:16:53;;;;;;;6.97;4.00;;;;;;;;;;5074538;28;20044;-77
2023/06/04 13:19:22;;;;;;;5.68;3.92;;;;;;;;;;5071949;28;20140;-80
2023/06/04 13:21:49;;;;;;;6.27;3.83;;;;;;;;;;5083278;28;20079;-78
2023/06/04 13:24:16;;;;;;;7.80;4.63;;;;;;;;;;5080148;28;20080;-78
2023/06/04 13:26:42;;;;;;;6.47;4.10;;;;;;;;;;5077995;28;20068;-77
2023/06/04 13:29:09;;;;;;;6.18;4.00;;;;;;;;;;5081920;28;20486;-76
2023/06/04 13:31:40;;;;;;;11.93;4.55;;;;;;;;;;5071816;28;20040;-77
2023/06/04 13:34:08;;;;;;;6.18;3.90;;;;;;;;;;5079721;28;20097;-76
2023/06/04 13:36:35;;;;;;;6.50;4.15;;;;;;;;;;5112446;22;20125;-75
2023/06/04 13:39:10;;;;;;;7.00;4.00;;;;;;;;;;5072896;28;20040;-76
2023/06/04 13:41:40;;;;;;;6.80;4.30;;;;;;;;;;5073562;28;20076;-77
2023/06/04 13:44:11;;;;;;;6.82;4.10;;;;;;;;;;5072404;28;20084;-77
2023/06/04 13:46:38;;;;;;;6.53;3.83;;;;;;;;;;5075255;28;20053;-75
2023/06/04 13:49:05;;;;;;;6.45;3.90;;;;;;;;;;5094965;28;20068;-75
2023/06/04 13:51:33;;;;;;;5.05;3.70;;;;;;;;;;5075070;28;20494;-76
2023/06/04 13:54:00;;;;;;;5.53;3.67;;;;;;;;;;5072482;28;20128;-76
2023/06/04 13:56:26;;;;;;;8.07;3.88;;;;;;;;;;5071994;28;20049;-76
2023/06/04 13:58:53;;;;;;;7.07;4.10;;;;;;;;;;5071532;28;20109;-76
2023/06/04 14:01:20;;;;;;;5.63;3.90;;;;;;;;;;5072027;28;20131;-76
2023/06/04 14:03:46;;;;;;;6.32;3.75;;;;;;;;;;5072069;28;20048;-75
2023/06/04 14:06:13;;;;;;;7.25;3.85;;;;;;;;;;5072257;28;20143;-75
2023/06/04 14:08:41;;;;;;;5.72;4.30;;;;;;;;;;5071430;28;20494;-77
2023/06/04 14:11:08;;;;;;;6.50;3.85;;;;;;;;;;5071242;28;20114;-77
2023/06/04 14:13:34;;;;;;;6.40;4.32;;;;;;;;;;5071745;28;20132;-76
2023/06/04 14:16:01;;;;;;;7.00;4.00;;;;;;;;;;5071794;28;20481;-75
2023/06/04 14:18:27;;;;;;;5.07;3.85;;;;;;;;;;5071968;28;20045;-77
2023/06/04 14:20:54;;;;;;;6.68;4.32;;;;;;;;;;5071746;28;20056;-76
2023/06/04 14:23:21;;;;;;;6.20;4.10;;;;;;;;;;5072529;28;21678;-77
2023/06/04 14:25:49;;;;;;;6.95;4.57;;;;;;;;;;5071631;28;20523;-77
2023/06/04 14:28:15;;;;;;;6.05;3.90;;;;;;;;;;5071610;28;20140;-76
2023/06/04 14:30:42;;;;;;;6.80;4.10;;;;;;;;;;5071522;28;20048;-76
2023/06/04 14:33:09;;;;;;;6.57;3.97;;;;;;;;;;5072139;28;20064;-76
2023/06/04 14:35:36;;;;;;;9.20;5.55;;;;;;;;;;5071814;28;20190;-75
2023/06/04 14:38:02;;;;;;;6.97;4.18;;;;;;;;;;5071539;28;20116;-76
2023/06/04 14:40:29;;;;;;;6.28;3.70;;;;;;;;;;5071421;28;20059;-76
2023/06/04 14:42:58;;;;;;;6.80;3.88;;;;;;;;;;5071548;28;20131;-76
2023/06/04 14:45:25;;;;;;;6.23;4.23;;;;;;;;;;5071510;28;20143;-77